createdAt,value
2016-12-02T00:00:53.396Z,0
2016-12-02T00:02:07.972Z,0
2016-12-02T00:03:22.160Z,0
2016-12-02T00:04:36.268Z,0
2016-12-02T00:05:51.300Z,0
2016-12-02T00:07:05.244Z,0
2016-12-02T00:08:19.608Z,0
2016-12-02T00:09:33.357Z,0
2016-12-02T00:10:47.865Z,0
2016-12-02T00:12:01.874Z,0
2016-12-02T00:13:16.513Z,0
2016-12-02T00:14:30.939Z,0
2016-12-02T00:15:45.199Z,0
2016-12-02T00:16:59.522Z,0
2016-12-02T00:18:13.330Z,0
2016-12-02T00:19:27.833Z,0
2016-12-02T00:20:41.994Z,0
2016-12-02T00:21:55.802Z,0
2016-12-02T00:23:10.541Z,0
2016-12-02T00:24:24.375Z,0
2016-12-02T00:25:38.347Z,0
2016-12-02T00:26:52.855Z,0
2016-12-02T00:28:06.711Z,0
2016-12-02T00:29:21.037Z,0
2016-12-02T00:30:35.383Z,0
2016-12-02T00:31:49.668Z,0
2016-12-02T00:33:03.849Z,0
2016-12-02T00:34:18.125Z,0
2016-12-02T00:35:33.357Z,0
2016-12-02T00:37:01.917Z,0
2016-12-02T00:38:17.404Z,0
2016-12-02T00:39:31.769Z,0
2016-12-02T00:40:45.741Z,0
2016-12-02T00:42:00.012Z,0
2016-12-02T00:43:14.139Z,0
2016-12-02T00:44:28.228Z,0
2016-12-02T00:45:42.497Z,0
2016-12-02T00:46:56.408Z,0
2016-12-02T00:48:10.664Z,0
2016-12-02T00:49:24.732Z,0
2016-12-02T00:50:38.853Z,0
2016-12-02T00:51:53.125Z,0
2016-12-02T00:53:06.986Z,0
2016-12-02T00:54:20.797Z,0
2016-12-02T00:55:36.913Z,0
2016-12-02T00:56:51.253Z,0
2016-12-02T00:58:05.929Z,0
2016-12-02T00:59:19.984Z,0
2016-12-02T01:00:33.746Z,0
2016-12-02T01:01:47.743Z,0
2016-12-02T01:03:01.707Z,0
2016-12-02T01:04:15.664Z,0
2016-12-02T01:05:30.218Z,0
2016-12-02T01:06:44.525Z,0
2016-12-02T01:07:58.832Z,0
2016-12-02T01:09:12.996Z,0
2016-12-02T01:10:26.918Z,0
2016-12-02T01:11:40.932Z,0
2016-12-02T01:12:55.020Z,0
2016-12-02T01:14:09.045Z,0
2016-12-02T01:15:23.392Z,0
2016-12-02T01:16:37.795Z,0
2016-12-02T01:17:51.715Z,0
2016-12-02T01:19:05.877Z,0
2016-12-02T01:20:19.835Z,0
2016-12-02T01:21:34.001Z,0
2016-12-02T01:22:48.264Z,0
2016-12-02T01:24:02.246Z,0
2016-12-02T01:25:16.507Z,0
2016-12-02T01:26:30.424Z,0
2016-12-02T01:27:44.549Z,0
2016-12-02T01:28:58.792Z,0
2016-12-02T01:30:12.776Z,0
2016-12-02T01:31:27.033Z,0
2016-12-02T01:32:41.384Z,0
2016-12-02T01:33:55.662Z,0
2016-12-02T01:35:09.486Z,0
2016-12-02T01:36:23.604Z,0
2016-12-02T01:37:38.012Z,0
2016-12-02T01:38:52.037Z,0
2016-12-02T01:40:06.334Z,0
2016-12-02T01:41:20.435Z,0
2016-12-02T01:42:34.431Z,0
2016-12-02T01:43:48.252Z,0
2016-12-02T01:45:02.316Z,0
2016-12-02T01:46:16.573Z,0
2016-12-02T01:47:30.559Z,0
2016-12-02T01:48:44.588Z,0
2016-12-02T01:49:58.448Z,0
2016-12-02T01:51:12.405Z,0
2016-12-02T01:52:27.003Z,0
2016-12-02T01:53:41.052Z,0
2016-12-02T01:54:55.065Z,0
2016-12-02T01:56:09.053Z,0
2016-12-02T01:57:22.881Z,0
2016-12-02T01:58:37.770Z,0
2016-12-02T01:59:51.884Z,0
2016-12-02T02:01:05.815Z,0
2016-12-02T02:02:19.820Z,0
2016-12-02T02:03:33.685Z,0
2016-12-02T02:04:48.087Z,0
2016-12-02T02:06:01.946Z,0
2016-12-02T02:07:16.092Z,0
2016-12-02T02:08:30.023Z,0
2016-12-02T02:09:43.935Z,0
2016-12-02T02:10:57.943Z,0
2016-12-02T02:12:14.427Z,0
2016-12-02T02:13:28.248Z,0
2016-12-02T02:14:42.238Z,0
2016-12-02T02:15:56.081Z,0
2016-12-02T02:17:10.342Z,0
2016-12-02T02:18:24.610Z,0
2016-12-02T02:19:38.801Z,0
2016-12-02T02:20:52.691Z,0
2016-12-02T02:22:06.773Z,0
2016-12-02T02:23:20.877Z,0
2016-12-02T02:24:34.953Z,0
2016-12-02T02:25:49.068Z,0
2016-12-02T02:27:02.736Z,0
2016-12-02T02:28:16.732Z,0
2016-12-02T02:29:31.015Z,0
2016-12-02T02:30:45.304Z,0
2016-12-02T02:31:59.446Z,0
2016-12-02T02:33:13.339Z,0
2016-12-02T02:34:27.113Z,0
2016-12-02T02:35:41.176Z,0
2016-12-02T02:36:54.952Z,0
2016-12-02T02:38:06.639Z,0
2016-12-02T02:39:18.286Z,0
2016-12-02T02:40:29.661Z,0
2016-12-02T02:41:40.914Z,0
2016-12-02T02:42:52.469Z,0
2016-12-02T02:44:03.659Z,0
2016-12-02T02:45:15.356Z,0
2016-12-02T02:46:26.882Z,0
2016-12-02T02:47:38.280Z,0
2016-12-02T02:48:49.851Z,0
2016-12-02T02:50:01.058Z,0
2016-12-02T02:51:12.594Z,0
2016-12-02T02:52:23.891Z,0
2016-12-02T02:53:36.136Z,0
2016-12-02T02:54:47.667Z,0
2016-12-02T02:55:59.001Z,0
2016-12-02T02:57:10.382Z,0
2016-12-02T02:58:21.812Z,0
2016-12-02T02:59:33.193Z,0
2016-12-02T03:00:45.377Z,0
2016-12-02T03:01:56.673Z,0
2016-12-02T03:03:07.954Z,0
2016-12-02T03:04:19.536Z,0
2016-12-02T03:05:30.859Z,0
2016-12-02T03:06:42.578Z,0
2016-12-02T03:07:54.376Z,0
2016-12-02T03:09:05.805Z,0
2016-12-02T03:11:43.704Z,0
2016-12-02T03:12:55.062Z,0
2016-12-02T03:14:06.592Z,0
2016-12-02T03:15:17.972Z,0
2016-12-02T03:16:30.316Z,0
2016-12-02T03:17:41.655Z,0
2016-12-02T03:18:53.494Z,0
2016-12-02T03:20:04.775Z,0
2016-12-02T03:21:16.323Z,0
2016-12-02T03:22:27.706Z,0
2016-12-02T03:23:39.083Z,0
2016-12-02T03:24:50.773Z,0
2016-12-02T03:26:02.452Z,0
2016-12-02T03:27:16.095Z,0
2016-12-02T03:28:27.767Z,0
2016-12-02T03:29:39.553Z,0
2016-12-02T03:30:51.253Z,0
2016-12-02T03:32:02.696Z,0
2016-12-02T03:33:14.815Z,0
2016-12-02T03:34:55.908Z,0
2016-12-02T03:36:07.460Z,0
2016-12-02T03:37:19.179Z,0
2016-12-02T03:38:30.767Z,0
2016-12-02T03:39:42.348Z,0
2016-12-02T03:42:49.832Z,0
2016-12-02T03:44:01.146Z,0
2016-12-02T03:45:13.023Z,0
2016-12-02T03:46:24.563Z,0
2016-12-02T03:47:35.912Z,0
2016-12-02T03:48:47.470Z,0
2016-12-02T03:49:59.123Z,0
2016-12-02T03:51:10.954Z,0
2016-12-02T03:52:22.436Z,0
2016-12-02T03:53:33.876Z,0
2016-12-02T03:54:45.411Z,0
2016-12-02T03:55:57.667Z,0
2016-12-02T03:57:09.780Z,0
2016-12-02T03:58:21.437Z,0
2016-12-02T03:59:33.124Z,0
2016-12-02T04:00:44.412Z,0
2016-12-02T04:01:56.091Z,0
2016-12-02T04:03:07.970Z,0
2016-12-02T04:04:19.354Z,0
2016-12-02T04:05:30.935Z,0
2016-12-02T04:06:42.567Z,0
2016-12-02T04:07:54.406Z,0
2016-12-02T04:09:06.390Z,0
2016-12-02T04:10:17.880Z,0
2016-12-02T04:11:29.445Z,0
2016-12-02T04:12:55.661Z,0
2016-12-02T04:14:07.592Z,0
2016-12-02T04:15:19.383Z,0
2016-12-02T04:16:30.843Z,0
2016-12-02T04:17:42.130Z,0
2016-12-02T04:18:53.486Z,0
2016-12-02T04:20:05.222Z,0
2016-12-02T04:21:16.683Z,0
2016-12-02T04:22:28.669Z,0
2016-12-02T04:23:40.158Z,0
2016-12-02T04:24:51.690Z,0
2016-12-02T04:26:03.395Z,0
2016-12-02T04:27:14.948Z,0
2016-12-02T04:28:26.675Z,0
2016-12-02T04:29:38.202Z,0
2016-12-02T04:30:49.771Z,0
2016-12-02T04:32:01.561Z,0
2016-12-02T04:33:12.967Z,0
2016-12-02T04:34:24.567Z,0
2016-12-02T04:35:36.274Z,0
2016-12-02T04:36:47.756Z,0
2016-12-02T04:37:59.579Z,0
2016-12-02T04:39:11.137Z,0
2016-12-02T04:40:22.437Z,0
2016-12-02T04:41:34.045Z,0
2016-12-02T04:42:47.931Z,0
2016-12-02T04:43:59.418Z,0
2016-12-02T04:45:10.751Z,0
2016-12-02T04:46:22.077Z,0
2016-12-02T04:47:33.525Z,0
2016-12-02T04:48:44.995Z,0
2016-12-02T04:49:57.192Z,0
2016-12-02T04:51:08.726Z,0
2016-12-02T04:52:20.170Z,0
2016-12-02T04:53:31.365Z,0
2016-12-02T04:54:42.631Z,0
2016-12-02T04:55:54.531Z,0
2016-12-02T04:57:05.826Z,0
2016-12-02T04:58:17.761Z,0
2016-12-02T04:59:29.363Z,0
2016-12-02T05:00:40.696Z,0
2016-12-02T05:01:52.586Z,0
2016-12-02T05:03:04.175Z,0
2016-12-02T05:04:15.832Z,0
2016-12-02T05:05:27.234Z,0
2016-12-02T05:06:38.550Z,0
2016-12-02T05:07:50.371Z,0
2016-12-02T05:09:01.782Z,0
2016-12-02T05:10:13.368Z,0
2016-12-02T05:11:39.513Z,0
2016-12-02T05:12:51.080Z,0
2016-12-02T05:14:03.013Z,0
2016-12-02T05:15:14.499Z,0
2016-12-02T05:16:25.895Z,0
2016-12-02T05:17:37.164Z,0
2016-12-02T05:18:48.884Z,0
2016-12-02T05:20:00.566Z,0
2016-12-02T05:21:12.294Z,0
2016-12-02T05:22:24.025Z,0
2016-12-02T05:23:35.393Z,0
2016-12-02T05:24:46.622Z,0
2016-12-02T05:25:58.181Z,0
2016-12-02T05:27:09.902Z,0
2016-12-02T05:28:21.283Z,0
2016-12-02T05:29:32.814Z,0
2016-12-02T05:30:44.225Z,0
2016-12-02T05:31:55.733Z,0
2016-12-02T05:33:07.658Z,0
2016-12-02T05:34:19.084Z,0
2016-12-02T05:35:30.802Z,0
2016-12-02T05:36:42.267Z,0
2016-12-02T05:37:53.985Z,0
2016-12-02T05:39:05.322Z,0
2016-12-02T05:40:16.942Z,0
2016-12-02T05:46:19.072Z,0
2016-12-02T05:47:30.714Z,0
2016-12-02T05:48:42.102Z,0
2016-12-02T05:49:53.520Z,0
2016-12-02T05:51:05.022Z,0
2016-12-02T05:52:16.318Z,0
2016-12-02T05:53:28.447Z,0
2016-12-02T05:54:40.172Z,0
2016-12-02T05:55:51.573Z,0
2016-12-02T05:57:02.957Z,0
2016-12-02T05:58:14.862Z,0
2016-12-02T05:59:28.660Z,0
2016-12-02T06:00:40.437Z,0
2016-12-02T06:01:51.873Z,0
2016-12-02T06:03:03.724Z,0
2016-12-02T06:04:15.589Z,0
2016-12-02T06:05:27.575Z,0
2016-12-02T06:06:39.073Z,0
2016-12-02T06:07:50.648Z,0
2016-12-02T06:09:01.844Z,0
2016-12-02T06:10:13.670Z,0
2016-12-02T06:11:25.482Z,0
2016-12-02T06:12:36.652Z,0
2016-12-02T06:13:48.246Z,0
2016-12-02T06:14:59.772Z,0
2016-12-02T06:16:11.523Z,0
2016-12-02T06:17:23.252Z,0
2016-12-02T06:18:34.895Z,0
2016-12-02T06:19:46.520Z,0
2016-12-02T06:20:58.235Z,0
2016-12-02T06:22:09.871Z,0
2016-12-02T06:23:21.733Z,0
2016-12-02T06:24:33.009Z,0
2016-12-02T06:25:44.453Z,0
2016-12-02T06:26:56.001Z,0
2016-12-02T06:28:07.599Z,0
2016-12-02T06:29:19.321Z,0
2016-12-02T06:30:30.670Z,0
2016-12-02T06:31:57.068Z,0
2016-12-02T06:33:08.814Z,0
2016-12-02T06:34:20.324Z,0
2016-12-02T06:35:32.123Z,0
2016-12-02T06:36:43.503Z,0
2016-12-02T06:37:54.796Z,0
2016-12-02T06:39:06.352Z,0
2016-12-02T06:40:18.039Z,4
2016-12-02T06:41:29.596Z,4
2016-12-02T06:42:40.874Z,4
2016-12-02T06:43:52.160Z,0
2016-12-02T06:45:03.677Z,4
2016-12-02T06:46:15.067Z,4
2016-12-02T06:47:27.222Z,4
2016-12-02T06:48:38.538Z,4
2016-12-02T06:49:49.836Z,8
2016-12-02T06:51:01.470Z,4
2016-12-02T06:52:12.773Z,8
2016-12-02T06:53:24.831Z,8
2016-12-02T06:54:36.320Z,8
2016-12-02T06:56:02.939Z,12
2016-12-02T06:57:14.794Z,12
2016-12-02T06:58:26.529Z,12
2016-12-02T06:59:38.229Z,16
2016-12-02T07:00:49.461Z,20
2016-12-02T07:02:01.256Z,20
2016-12-02T07:03:12.709Z,20
2016-12-02T07:04:26.841Z,24
2016-12-02T07:05:40.645Z,28
2016-12-02T07:06:52.182Z,28
2016-12-02T07:08:03.835Z,28
2016-12-02T07:09:15.520Z,32
2016-12-02T07:10:26.891Z,32
2016-12-02T07:11:38.851Z,40
2016-12-02T07:12:50.156Z,44
2016-12-02T07:14:03.866Z,68
2016-12-02T07:15:15.859Z,84
2016-12-02T07:16:27.518Z,84
2016-12-02T07:17:39.205Z,96
2016-12-02T07:18:50.940Z,96
2016-12-02T07:20:02.353Z,92
2016-12-02T07:21:15.393Z,108
2016-12-02T07:22:28.550Z,128
2016-12-02T07:23:40.368Z,108
2016-12-02T07:24:51.968Z,112
2016-12-02T07:26:03.557Z,136
2016-12-02T07:27:15.968Z,156
2016-12-02T07:28:27.601Z,212
2016-12-02T07:29:39.821Z,180
2016-12-02T07:30:51.468Z,172
2016-12-02T07:32:02.859Z,140
2016-12-02T07:33:14.524Z,140
2016-12-02T07:34:25.888Z,160
2016-12-02T07:35:37.837Z,188
2016-12-02T07:36:49.575Z,236
2016-12-02T07:38:00.918Z,228
2016-12-02T07:39:12.374Z,176
2016-12-02T07:40:23.707Z,148
2016-12-02T07:41:35.509Z,224
2016-12-02T07:42:46.905Z,296
2016-12-02T07:43:58.939Z,228
2016-12-02T07:45:10.671Z,316
2016-12-02T07:46:22.119Z,364
2016-12-02T07:47:33.714Z,336
2016-12-02T07:48:45.049Z,352
2016-12-02T07:49:56.784Z,324
2016-12-02T07:51:08.231Z,320
2016-12-02T07:52:19.936Z,396
2016-12-02T07:53:31.519Z,312
2016-12-02T07:54:42.901Z,316
2016-12-02T07:55:54.805Z,364
2016-12-02T07:57:06.444Z,344
2016-12-02T07:58:17.977Z,412
2016-12-02T07:59:29.636Z,540
2016-12-02T08:00:41.202Z,476
2016-12-02T08:01:52.424Z,384
2016-12-02T08:03:04.187Z,380
2016-12-02T08:04:15.410Z,400
2016-12-02T08:05:26.901Z,328
2016-12-02T08:06:38.608Z,328
2016-12-02T08:07:50.113Z,300
2016-12-02T08:09:02.003Z,384
2016-12-02T08:10:13.679Z,376
2016-12-02T08:11:25.245Z,312
2016-12-02T08:12:36.474Z,264
2016-12-02T08:13:47.974Z,308
2016-12-02T08:14:59.311Z,376
2016-12-02T08:16:10.760Z,388
2016-12-02T08:17:22.552Z,436
2016-12-02T08:18:34.072Z,384
2016-12-02T08:19:45.663Z,452
2016-12-02T08:20:57.393Z,372
2016-12-02T08:23:35.162Z,372
2016-12-02T08:24:47.124Z,324
2016-12-02T08:25:58.831Z,280
2016-12-02T08:27:24.966Z,352
2016-12-02T08:28:38.901Z,488
2016-12-02T08:29:50.553Z,460
2016-12-02T08:31:02.068Z,484
2016-12-02T08:32:13.508Z,544
2016-12-02T08:33:25.166Z,564
2016-12-02T08:34:36.809Z,556
2016-12-02T08:35:48.092Z,760
2016-12-02T08:36:59.886Z,716
2016-12-02T08:38:11.655Z,660
2016-12-02T08:39:23.704Z,552
2016-12-02T08:40:35.800Z,516
2016-12-02T08:41:47.647Z,464
2016-12-02T08:42:58.941Z,464
2016-12-02T08:44:10.468Z,384
2016-12-02T08:45:21.987Z,344
2016-12-02T08:46:33.871Z,384
2016-12-02T08:47:45.616Z,408
2016-12-02T08:48:57.304Z,464
2016-12-02T08:50:09.008Z,472
2016-12-02T08:51:20.457Z,560
2016-12-02T08:52:32.564Z,600
2016-12-02T08:53:44.602Z,564
2016-12-02T08:54:56.103Z,656
2016-12-02T08:56:08.024Z,696
2016-12-02T08:57:20.420Z,680
2016-12-02T08:58:32.254Z,624
2016-12-02T08:59:44.659Z,660
2016-12-02T09:00:55.985Z,668
2016-12-02T09:02:07.561Z,628
2016-12-02T09:03:19.558Z,764
2016-12-02T09:04:31.069Z,744
2016-12-02T09:05:43.167Z,748
2016-12-02T09:06:55.006Z,1112
2016-12-02T09:08:06.474Z,1224
2016-12-02T09:09:18.120Z,1184
2016-12-02T09:10:29.539Z,1164
2016-12-02T09:11:41.741Z,1024
2016-12-02T09:12:53.960Z,1076
2016-12-02T09:14:05.927Z,1036
2016-12-02T09:15:17.305Z,1036
2016-12-02T09:16:28.857Z,1104
2016-12-02T09:17:40.766Z,1108
2016-12-02T09:18:52.106Z,1084
2016-12-02T09:20:03.860Z,1140
2016-12-02T09:21:15.821Z,1124
2016-12-02T09:22:27.781Z,1308
2016-12-02T09:23:39.178Z,1648
2016-12-02T09:24:51.392Z,1868
2016-12-02T09:26:03.480Z,2408
2016-12-02T09:27:14.762Z,2856
2016-12-02T09:28:26.151Z,2124
2016-12-02T09:29:37.846Z,2016
2016-12-02T09:30:49.331Z,2244
2016-12-02T09:32:00.778Z,2100
2016-12-02T09:33:12.286Z,2296
2016-12-02T09:34:24.989Z,2900
2016-12-02T09:35:36.773Z,3344
2016-12-02T09:36:48.156Z,3216
2016-12-02T09:37:59.451Z,2392
2016-12-02T09:39:12.215Z,1812
2016-12-02T09:40:23.733Z,1804
2016-12-02T09:41:35.236Z,1900
2016-12-02T09:42:49.141Z,1928
2016-12-02T09:44:01.537Z,1932
2016-12-02T09:45:27.719Z,1904
2016-12-02T09:46:39.508Z,1916
2016-12-02T09:47:51.374Z,1916
2016-12-02T09:49:03.000Z,1812
2016-12-02T09:50:14.730Z,1664
2016-12-02T09:51:26.104Z,1472
2016-12-02T09:52:37.400Z,1452
2016-12-02T09:53:49.629Z,1492
2016-12-02T09:55:01.171Z,1648
2016-12-02T09:56:12.693Z,1696
2016-12-02T09:57:24.700Z,1988
2016-12-02T09:58:36.367Z,1928
2016-12-02T09:59:47.991Z,2116
2016-12-02T10:00:59.914Z,2204
2016-12-02T10:02:11.219Z,2080
2016-12-02T10:03:22.462Z,2116
2016-12-02T10:04:48.869Z,2236
2016-12-02T10:06:01.319Z,2356
2016-12-02T10:07:12.875Z,2352
2016-12-02T10:08:24.510Z,2324
2016-12-02T10:09:36.109Z,2300
2016-12-02T10:10:47.690Z,2276
2016-12-02T10:11:59.657Z,2264
2016-12-02T10:13:11.120Z,2312
2016-12-02T10:14:22.313Z,2336
2016-12-02T10:15:34.086Z,2312
2016-12-02T10:16:46.089Z,2284
2016-12-02T10:18:00.360Z,2208
2016-12-02T10:19:14.372Z,2220
2016-12-02T10:20:28.523Z,1968
2016-12-02T10:21:42.727Z,1844
2016-12-02T10:22:57.207Z,1912
2016-12-02T10:24:11.341Z,2008
2016-12-02T10:25:25.201Z,1892
2016-12-02T10:26:39.236Z,2176
2016-12-02T10:27:53.112Z,2004
2016-12-02T10:29:07.484Z,2328
2016-12-02T10:30:21.452Z,2420
2016-12-02T10:31:35.847Z,2452
2016-12-02T10:32:50.217Z,2248
2016-12-02T10:34:04.211Z,1756
2016-12-02T10:35:18.520Z,1768
2016-12-02T10:36:32.631Z,1604
2016-12-02T10:37:46.656Z,1608
2016-12-02T10:39:00.987Z,1532
2016-12-02T10:40:15.293Z,1640
2016-12-02T10:41:30.412Z,1296
2016-12-02T10:42:44.893Z,1544
2016-12-02T10:43:58.747Z,1892
2016-12-02T10:45:13.169Z,1976
2016-12-02T10:46:27.297Z,1684
2016-12-02T10:47:41.789Z,1608
2016-12-02T10:48:55.721Z,1572
2016-12-02T10:50:09.666Z,1428
2016-12-02T10:51:23.816Z,1312
2016-12-02T10:52:37.964Z,1308
2016-12-02T10:54:07.107Z,1172
2016-12-02T10:55:21.484Z,1008
2016-12-02T10:56:35.202Z,1136
2016-12-02T10:57:49.276Z,1080
2016-12-02T10:59:05.629Z,944
2016-12-02T11:00:19.861Z,852
2016-12-02T11:01:34.039Z,804
2016-12-02T11:02:48.122Z,884
2016-12-02T11:04:14.945Z,764
2016-12-02T11:05:29.687Z,684
2016-12-02T11:06:44.024Z,704
2016-12-02T11:07:58.066Z,640
2016-12-02T11:09:12.050Z,672
2016-12-02T11:10:25.982Z,728
2016-12-02T11:11:39.964Z,780
2016-12-02T11:12:54.069Z,832
2016-12-02T11:14:08.365Z,776
2016-12-02T11:15:22.211Z,924
2016-12-02T11:16:36.263Z,1028
2016-12-02T11:17:50.347Z,1248
2016-12-02T11:19:04.346Z,1124
2016-12-02T11:20:19.526Z,1060
2016-12-02T11:21:33.820Z,1368
2016-12-02T11:22:48.226Z,1568
2016-12-02T11:24:02.406Z,1228
2016-12-02T11:25:16.350Z,1128
2016-12-02T11:26:30.187Z,1184
2016-12-02T11:27:44.658Z,1188
2016-12-02T11:28:58.641Z,1012
2016-12-02T11:30:12.841Z,1020
2016-12-02T11:31:27.642Z,940
2016-12-02T11:32:41.329Z,912
2016-12-02T11:33:55.085Z,856
2016-12-02T11:35:09.035Z,1044
2016-12-02T11:36:38.730Z,872
2016-12-02T11:37:53.549Z,1328
2016-12-02T11:39:07.428Z,1340
2016-12-02T11:40:21.755Z,1232
2016-12-02T11:41:35.984Z,1408
2016-12-02T11:42:50.718Z,1392
2016-12-02T11:44:04.483Z,1240
2016-12-02T11:45:18.983Z,1048
2016-12-02T11:46:47.579Z,908
2016-12-02T11:48:02.088Z,1092
2016-12-02T11:49:16.572Z,1016
2016-12-02T11:50:30.729Z,856
2016-12-02T11:51:45.081Z,844
2016-12-02T11:52:59.651Z,924
2016-12-02T11:54:13.948Z,896
2016-12-02T11:55:28.081Z,820
2016-12-02T11:56:41.794Z,776
2016-12-02T11:57:55.798Z,680
2016-12-02T11:59:09.920Z,632
2016-12-02T12:00:25.501Z,632
2016-12-02T12:01:39.945Z,668
2016-12-02T12:02:54.083Z,596
2016-12-02T12:04:08.751Z,564
2016-12-02T12:05:22.741Z,584
2016-12-02T12:06:37.063Z,568
2016-12-02T12:07:51.432Z,544
2016-12-02T12:09:05.834Z,516
2016-12-02T12:10:19.583Z,464
2016-12-02T12:11:33.756Z,468
2016-12-02T12:12:48.065Z,496
2016-12-02T12:14:02.219Z,544
2016-12-02T12:15:16.394Z,496
2016-12-02T12:16:33.097Z,500
2016-12-02T12:17:47.202Z,520
2016-12-02T12:19:01.265Z,468
2016-12-02T12:20:15.105Z,428
2016-12-02T12:21:29.577Z,396
2016-12-02T12:22:44.914Z,388
2016-12-02T12:23:58.792Z,380
2016-12-02T12:25:13.122Z,332
2016-12-02T12:26:26.957Z,252
2016-12-02T12:27:41.475Z,236
2016-12-02T12:28:55.936Z,256
2016-12-02T12:30:09.707Z,296
2016-12-02T12:31:23.801Z,348
2016-12-02T12:32:37.961Z,332
2016-12-02T12:33:51.670Z,292
2016-12-02T12:35:06.019Z,248
2016-12-02T12:36:20.412Z,232
2016-12-02T12:37:34.385Z,240
2016-12-02T12:38:48.535Z,280
2016-12-02T12:40:03.073Z,324
2016-12-02T12:41:17.266Z,368
2016-12-02T12:42:45.967Z,452
2016-12-02T12:44:00.516Z,564
2016-12-02T12:45:14.651Z,604
2016-12-02T12:46:29.074Z,600
2016-12-02T12:47:43.788Z,608
2016-12-02T12:48:57.971Z,568
2016-12-02T12:50:11.963Z,528
2016-12-02T12:51:26.218Z,560
2016-12-02T12:52:40.885Z,592
2016-12-02T12:53:55.465Z,592
2016-12-02T12:55:09.869Z,580
2016-12-02T12:56:24.424Z,576
2016-12-02T12:57:54.498Z,608
2016-12-02T12:59:08.918Z,628
2016-12-02T13:00:23.855Z,644
2016-12-02T13:01:38.303Z,680
2016-12-02T13:02:52.917Z,732
2016-12-02T13:04:07.458Z,780
2016-12-02T13:05:21.690Z,824
2016-12-02T13:06:36.475Z,876
2016-12-02T13:07:50.740Z,904
2016-12-02T13:09:05.138Z,876
2016-12-02T13:10:19.203Z,844
2016-12-02T13:11:33.950Z,868
2016-12-02T13:12:47.933Z,888
2016-12-02T13:14:02.086Z,876
2016-12-02T13:15:15.893Z,832
2016-12-02T13:16:30.037Z,788
2016-12-02T13:17:44.003Z,744
2016-12-02T13:18:58.233Z,756
2016-12-02T13:20:12.610Z,728
2016-12-02T13:21:26.884Z,688
2016-12-02T13:22:40.741Z,632
2016-12-02T13:23:55.043Z,616
2016-12-02T13:25:24.499Z,628
2016-12-02T13:26:38.670Z,668
2016-12-02T13:27:52.837Z,648
2016-12-02T13:29:07.167Z,552
2016-12-02T13:30:21.168Z,516
2016-12-02T13:31:35.911Z,540
2016-12-02T13:32:50.059Z,452
2016-12-02T13:34:21.349Z,376
2016-12-02T13:35:35.815Z,436
2016-12-02T13:36:50.335Z,548
2016-12-02T13:38:04.396Z,596
2016-12-02T13:39:18.527Z,708
2016-12-02T13:40:32.719Z,660
2016-12-02T13:41:46.668Z,652
2016-12-02T13:43:01.284Z,684
2016-12-02T13:44:15.508Z,716
2016-12-02T13:45:29.516Z,780
2016-12-02T13:46:43.519Z,776
2016-12-02T13:47:57.661Z,720
2016-12-02T13:49:08.988Z,744
2016-12-02T13:50:20.933Z,760
2016-12-02T13:51:32.865Z,740
2016-12-02T13:52:44.346Z,716
2016-12-02T13:53:55.635Z,700
2016-12-02T13:55:07.812Z,680
2016-12-02T13:56:21.906Z,704
2016-12-02T13:57:35.330Z,744
2016-12-02T13:58:46.953Z,764
2016-12-02T13:59:58.667Z,736
2016-12-02T14:01:10.134Z,752
2016-12-02T14:02:22.532Z,820
2016-12-02T14:03:48.782Z,932
2016-12-02T14:05:00.348Z,1016
2016-12-02T14:06:12.112Z,1036
2016-12-02T14:07:24.199Z,944
2016-12-02T14:08:35.797Z,912
2016-12-02T14:09:47.733Z,920
2016-12-02T14:10:59.255Z,920
2016-12-02T14:12:10.518Z,804
2016-12-02T14:13:22.208Z,724
2016-12-02T14:14:34.412Z,688
2016-12-02T14:15:46.019Z,680
2016-12-02T14:16:57.534Z,620
2016-12-02T14:18:08.834Z,596
2016-12-02T14:19:20.596Z,560
2016-12-02T14:20:33.117Z,468
2016-12-02T14:21:45.142Z,408
2016-12-02T14:22:56.967Z,380
2016-12-02T14:24:08.697Z,356
2016-12-02T14:25:20.138Z,332
2016-12-02T14:26:31.851Z,316
2016-12-02T14:27:43.087Z,324
2016-12-02T14:28:54.952Z,396
2016-12-02T14:30:09.282Z,488
2016-12-02T14:31:23.233Z,488
2016-12-02T14:32:37.226Z,480
2016-12-02T14:33:51.131Z,456
2016-12-02T14:35:05.318Z,444
2016-12-02T14:36:19.244Z,432
2016-12-02T14:37:33.301Z,396
2016-12-02T14:38:47.469Z,384
2016-12-02T14:40:01.195Z,356
2016-12-02T14:41:16.110Z,308
2016-12-02T14:42:30.247Z,280
2016-12-02T14:43:44.386Z,268
2016-12-02T14:44:58.623Z,296
2016-12-02T14:46:12.748Z,340
2016-12-02T14:47:27.111Z,344
2016-12-02T14:48:41.397Z,332
2016-12-02T14:49:58.235Z,308
2016-12-02T14:51:12.853Z,288
2016-12-02T14:52:26.799Z,260
2016-12-02T14:53:41.354Z,232
2016-12-02T14:54:55.770Z,228
2016-12-02T14:56:10.314Z,236
2016-12-02T14:57:24.276Z,268
2016-12-02T14:58:38.337Z,304
2016-12-02T14:59:52.155Z,324
2016-12-02T15:01:07.025Z,340
2016-12-02T15:02:22.117Z,352
2016-12-02T15:03:36.250Z,344
2016-12-02T15:04:50.418Z,348
2016-12-02T15:06:04.689Z,344
2016-12-02T15:07:18.863Z,332
2016-12-02T15:08:33.528Z,316
2016-12-02T15:09:47.853Z,296
2016-12-02T15:11:02.471Z,272
2016-12-02T15:12:17.745Z,260
2016-12-02T15:13:32.258Z,244
2016-12-02T15:14:47.109Z,224
2016-12-02T15:16:01.349Z,212
2016-12-02T15:17:31.111Z,188
2016-12-02T15:19:00.724Z,152
2016-12-02T15:20:15.245Z,136
2016-12-02T15:21:35.963Z,124
2016-12-02T15:22:50.956Z,116
2016-12-02T15:24:05.683Z,112
2016-12-02T15:25:19.809Z,108
2016-12-02T15:26:35.174Z,96
2016-12-02T15:27:50.462Z,84
2016-12-02T15:29:20.077Z,68
2016-12-02T15:30:34.763Z,60
2016-12-02T15:31:49.149Z,48
2016-12-02T15:33:03.551Z,44
2016-12-02T15:34:17.836Z,32
2016-12-02T15:35:32.267Z,28
2016-12-02T15:36:46.287Z,24
2016-12-02T15:38:02.205Z,20
2016-12-02T15:39:17.271Z,16
2016-12-02T15:40:32.525Z,12
2016-12-02T15:41:46.679Z,12
2016-12-02T15:43:02.667Z,12
2016-12-02T15:44:17.483Z,12
2016-12-02T15:45:31.728Z,8
2016-12-02T15:46:46.029Z,8
2016-12-02T15:48:00.455Z,8
2016-12-02T15:49:15.104Z,4
2016-12-02T15:50:29.543Z,4
2016-12-02T15:51:43.929Z,0
2016-12-02T15:52:58.208Z,4
2016-12-02T15:54:14.262Z,0
2016-12-02T15:55:28.310Z,4
2016-12-02T15:56:45.874Z,0
2016-12-02T15:58:00.401Z,0
2016-12-02T15:59:14.295Z,0
2016-12-02T16:00:28.361Z,0
2016-12-02T16:01:42.242Z,0
2016-12-02T16:02:57.258Z,0
2016-12-02T16:04:11.799Z,0
2016-12-02T16:05:25.957Z,0
2016-12-02T16:06:40.226Z,0
2016-12-02T16:07:56.655Z,0
2016-12-02T16:09:10.791Z,0
2016-12-02T16:10:25.212Z,0
2016-12-02T16:11:39.528Z,0
2016-12-02T16:12:53.355Z,0
2016-12-02T16:14:07.714Z,0
2016-12-02T16:15:22.061Z,0
2016-12-02T16:16:36.021Z,0
2016-12-02T16:17:49.761Z,0
2016-12-02T16:19:04.195Z,0
2016-12-02T16:20:18.020Z,0
2016-12-02T16:21:47.177Z,0
2016-12-02T16:23:02.210Z,0
2016-12-02T16:24:16.803Z,0
2016-12-02T16:25:30.711Z,0
2016-12-02T16:26:44.936Z,0
2016-12-02T16:27:59.222Z,0
2016-12-02T16:29:13.649Z,0
2016-12-02T16:30:27.874Z,0
2016-12-02T16:31:42.160Z,0
2016-12-02T16:32:56.970Z,0
2016-12-02T16:34:10.831Z,0
2016-12-02T16:35:25.377Z,0
2016-12-02T16:36:54.366Z,0
2016-12-02T16:38:08.983Z,0
2016-12-02T16:39:23.763Z,0
2016-12-02T16:40:37.943Z,0
2016-12-02T16:41:54.900Z,0
2016-12-02T16:43:16.041Z,0
2016-12-02T16:44:31.606Z,0
2016-12-02T16:45:50.034Z,0
2016-12-02T16:47:09.717Z,0
2016-12-02T16:48:28.783Z,0
2016-12-02T16:49:50.046Z,0
2016-12-02T16:51:09.047Z,0
2016-12-02T16:52:25.782Z,0
2016-12-02T16:53:40.510Z,0
2016-12-02T16:54:55.288Z,0
2016-12-02T16:56:09.465Z,0
2016-12-02T16:57:24.270Z,0
2016-12-02T16:58:38.467Z,0
2016-12-02T16:59:52.832Z,0
2016-12-02T17:01:07.793Z,0
2016-12-02T17:02:22.154Z,0
2016-12-02T17:03:36.329Z,0
2016-12-02T17:04:50.715Z,0
2016-12-02T17:06:04.552Z,0
2016-12-02T17:07:18.716Z,0
2016-12-02T17:08:33.262Z,0
2016-12-02T17:09:46.999Z,0
2016-12-02T17:11:00.844Z,0
2016-12-02T17:12:15.297Z,0
2016-12-02T17:13:30.229Z,0
2016-12-02T17:14:44.306Z,0
2016-12-02T17:15:58.733Z,0
2016-12-02T17:17:13.127Z,0
2016-12-02T17:18:26.924Z,0
2016-12-02T17:19:41.089Z,0
2016-12-02T17:20:55.122Z,0
2016-12-02T17:22:09.198Z,0
2016-12-02T17:23:24.102Z,0
2016-12-02T17:24:38.454Z,0
2016-12-02T17:25:55.224Z,0
2016-12-02T17:27:09.392Z,0
2016-12-02T17:28:23.670Z,0
2016-12-02T17:29:40.626Z,0
2016-12-02T17:30:55.038Z,0
2016-12-02T17:32:09.201Z,0
2016-12-02T17:33:23.642Z,0
2016-12-02T17:34:37.625Z,0